Time;durP1;ratioP1;P1;durP2;ratioP2;P2;SDS_P1;SDS_P2;PMS_P1;PMS_P2;Temp;Humidity;BMP_temperature;BMP_pressure;BME280_temperature;BME280_humidity;BME280_pressure;Samples;Min_cycle;Max_cycle;Signal;HPM_P1;HPM_P2
2022/09/03 00:01:51;;;;;;;16.33;14.57;;;17.90;99.90;;;;;;4955195;28;20071;-54
2022/09/03 00:04:17;;;;;;;16.30;14.68;;;17.80;99.90;;;;;;4955322;28;20376;-52
2022/09/03 00:06:51;;;;;;;15.35;13.88;;;17.80;99.90;;;;;;4955394;28;20043;-53
2022/09/03 00:09:18;;;;;;;16.65;13.68;;;17.70;99.90;;;;;;4955567;28;20106;-52
2022/09/03 00:11:46;;;;;;;17.73;14.98;;;17.70;99.90;;;;;;4955104;28;20052;-53
2022/09/03 00:14:14;;;;;;;15.73;14.10;;;17.70;99.90;;;;;;4955444;28;20047;-53
2022/09/03 00:16:40;;;;;;;15.88;14.27;;;17.70;99.90;;;;;;4955220;29;20039;-53
2022/09/03 00:19:07;;;;;;;15.05;13.45;;;17.70;99.90;;;;;;4955149;29;20043;-54
2022/09/03 00:21:34;;;;;;;16.33;14.60;;;17.50;99.90;;;;;;4955201;29;20095;-53
2022/09/03 00:24:01;;;;;;;15.73;14.10;;;17.50;99.90;;;;;;4955261;29;20070;-52
2022/09/03 00:26:28;;;;;;;21.70;14.40;;;17.50;99.90;;;;;;4954982;28;20074;-54
2022/09/03 00:28:54;;;;;;;18.42;14.55;;;17.50;99.90;;;;;;4953937;28;20499;-53
2022/09/03 00:31:27;;;;;;;16.73;14.13;;;17.40;99.90;;;;;;4957473;28;20035;-50
2022/09/03 00:33:54;;;;;;;17.05;15.35;;;17.40;99.90;;;;;;4958732;28;20043;-52
2022/09/03 00:36:20;;;;;;;16.60;14.82;;;17.40;99.90;;;;;;4958840;28;20071;-51
2022/09/03 00:38:47;;;;;;;17.10;14.73;;;17.40;99.90;;;;;;4958998;28;20046;-54
2022/09/03 00:41:15;;;;;;;17.67;15.55;;;17.30;99.90;;;;;;4959058;28;20043;-52
2022/09/03 00:43:45;;;;;;;16.42;14.73;;;17.30;99.90;;;;;;4959129;28;20046;-49
2022/09/03 00:46:11;;;;;;;16.92;15.23;;;17.30;99.90;;;;;;4958598;28;20502;-51
2022/09/03 00:48:38;;;;;;;18.17;15.10;;;17.20;99.90;;;;;;4956636;28;20043;-54
2022/09/03 00:51:05;;;;;;;16.55;14.82;;;17.20;99.90;;;;;;4956764;28;20065;-55
2022/09/03 00:53:32;;;;;;;18.52;15.00;;;17.20;99.90;;;;;;4956429;28;20055;-51
2022/09/03 00:55:59;;;;;;;16.73;14.57;;;17.10;99.90;;;;;;4958260;28;20043;-54
2022/09/03 00:58:25;;;;;;;15.50;13.30;;;17.10;99.90;;;;;;4956164;29;20035;-55
2022/09/03 01:00:52;;;;;;;19.25;14.05;;;17.10;99.90;;;;;;4954144;29;20044;-53
2022/09/03 01:03:22;;;;;;;15.80;13.38;;;17.10;99.90;;;;;;4938219;29;20111;-54
2022/09/03 01:05:49;;;;;;;16.60;13.68;;;17.10;99.90;;;;;;4942239;29;20045;-55
2022/09/03 01:08:17;;;;;;;17.45;13.43;;;17.10;99.90;;;;;;4958255;28;20098;-55
2022/09/03 01:10:44;;;;;;;19.42;12.90;;;17.20;99.90;;;;;;4955894;28;20047;-56
2022/09/03 01:13:11;;;;;;;14.15;12.68;;;17.20;99.90;;;;;;4958222;28;20116;-55
2022/09/03 01:15:38;;;;;;;14.60;13.00;;;17.20;99.90;;;;;;4958385;28;20118;-55
2022/09/03 01:18:05;;;;;;;17.63;13.05;;;17.20;99.90;;;;;;4956550;28;20047;-55
2022/09/03 01:20:32;;;;;;;18.77;13.27;;;17.20;99.90;;;;;;4957576;29;20545;-53
2022/09/03 01:22:59;;;;;;;15.00;13.45;;;17.20;99.90;;;;;;4957527;28;20451;-55
2022/09/03 01:25:30;;;;;;;15.57;13.13;;;17.20;99.90;;;;;;4957063;29;20106;-55
2022/09/03 01:27:57;;;;;;;17.17;13.43;;;17.20;99.90;;;;;;4954314;29;20047;-52
2022/09/03 01:30:24;;;;;;;17.58;14.20;;;17.30;99.90;;;;;;4958209;29;20458;-53
2022/09/03 01:32:51;;;;;;;15.90;13.20;;;17.30;99.90;;;;;;4946784;28;20059;-54
2022/09/03 01:35:18;;;;;;;15.43;13.10;;;17.30;99.90;;;;;;4957405;28;20086;-52
2022/09/03 01:37:45;;;;;;;13.70;12.40;;;17.20;99.90;;;;;;4956912;29;20047;-56
2022/09/03 01:40:12;;;;;;;16.17;12.65;;;17.30;99.90;;;;;;4956702;28;20039;-53
2022/09/03 01:42:39;;;;;;;14.00;12.50;;;17.30;99.90;;;;;;4957184;28;20078;-55
2022/09/03 01:45:07;;;;;;;17.13;13.40;;;17.30;99.90;;;;;;4957372;28;20047;-54
2022/09/03 01:47:33;;;;;;;16.75;13.13;;;17.40;99.90;;;;;;4957819;28;20433;-53
2022/09/03 01:50:00;;;;;;;15.65;13.52;;;17.40;99.90;;;;;;4957948;28;20047;-50
2022/09/03 01:52:27;;;;;;;15.00;13.57;;;17.40;99.90;;;;;;4957430;28;20069;-52
2022/09/03 01:54:54;;;;;;;21.23;15.05;;;17.40;99.90;;;;;;4956177;29;20055;-50
2022/09/03 01:57:21;;;;;;;15.90;14.18;;;17.50;99.90;;;;;;4957376;28;20379;-53
2022/09/03 02:00:01;;;;;;;15.70;14.10;;;17.50;99.90;;;;;;4950006;29;20047;-52
2022/09/03 02:02:37;;;;;;;16.67;14.85;;;17.50;99.90;;;;;;4955571;28;20047;-53
2022/09/03 02:05:08;;;;;;;16.67;15.02;;;17.50;99.90;;;;;;4956487;29;20043;-53
2022/09/03 02:07:34;;;;;;;17.40;15.55;;;17.50;99.90;;;;;;4957307;28;20043;-51
2022/09/03 02:10:01;;;;;;;17.67;14.95;;;17.60;99.90;;;;;;4956839;28;20123;-55
2022/09/03 02:12:28;;;;;;;18.13;16.15;;;17.50;99.90;;;;;;4955495;29;20043;-54
2022/09/03 02:14:55;;;;;;;19.88;16.13;;;17.50;99.90;;;;;;4956688;28;20050;-55
2022/09/03 02:17:22;;;;;;;18.85;16.90;;;17.50;99.90;;;;;;4956978;28;20051;-56
2022/09/03 02:19:48;;;;;;;17.52;15.85;;;17.40;99.90;;;;;;4956782;29;20043;-52
2022/09/03 02:22:15;;;;;;;21.15;17.17;;;17.30;99.90;;;;;;4955985;28;20047;-54
2022/09/03 02:24:42;;;;;;;19.35;17.33;;;17.30;99.90;;;;;;4956757;28;20049;-54
2022/09/03 02:27:09;;;;;;;19.40;16.40;;;17.20;99.90;;;;;;4957083;28;20064;-55
2022/09/03 02:29:36;;;;;;;19.10;16.98;;;17.10;99.90;;;;;;4956806;29;20102;-55
2022/09/03 02:32:03;;;;;;;20.13;17.95;;;17.00;99.90;;;;;;4964143;28;20043;-56
2022/09/03 02:34:30;;;;;;;21.88;19.40;;;16.90;99.90;;;;;;4955526;28;20047;-51
2022/09/03 02:36:57;;;;;;;21.23;18.98;;;16.90;99.90;;;;;;4955936;29;20050;-54
2022/09/03 02:39:23;;;;;;;22.23;19.20;;;16.90;99.90;;;;;;4956509;28;20051;-52
2022/09/03 02:41:50;;;;;;;20.15;18.13;;;16.90;99.90;;;;;;4954817;29;20565;-55
2022/09/03 02:44:18;;;;;;;21.67;18.75;;;16.90;99.90;;;;;;4956337;28;20047;-51
2022/09/03 02:46:45;;;;;;;22.85;19.50;;;16.90;99.90;;;;;;4956824;28;20382;-54
2022/09/03 02:49:12;;;;;;;20.88;18.17;;;16.90;99.90;;;;;;4955024;29;20054;-52
2022/09/03 02:51:39;;;;;;;20.42;18.35;;;16.80;99.90;;;;;;4956173;28;20047;-55
2022/09/03 02:54:07;;;;;;;20.60;18.52;;;16.90;99.90;;;;;;4954311;28;20067;-58
2022/09/03 02:56:33;;;;;;;22.92;18.83;;;17.00;99.90;;;;;;4954766;28;20039;-51
2022/09/03 02:59:00;;;;;;;19.50;17.52;;;17.00;99.90;;;;;;4956018;28;20376;-52
2022/09/03 03:01:27;;;;;;;20.55;18.40;;;17.00;99.90;;;;;;4956490;29;20043;-52
2022/09/03 03:03:54;;;;;;;22.00;18.27;;;17.10;99.90;;;;;;4955993;28;20090;-51
2022/09/03 03:06:21;;;;;;;20.30;18.30;;;17.10;99.90;;;;;;4955202;28;20046;-55
2022/09/03 03:08:48;;;;;;;21.83;19.60;;;17.10;99.90;;;;;;4956246;29;20086;-56
2022/09/03 03:11:17;;;;;;;20.60;18.50;;;17.20;99.90;;;;;;4955744;28;20050;-54
2022/09/03 03:13:43;;;;;;;20.80;18.63;;;17.20;99.90;;;;;;4954791;28;20055;-52
2022/09/03 03:16:10;;;;;;;23.58;19.88;;;17.20;99.90;;;;;;4955700;29;20571;-54
2022/09/03 03:18:38;;;;;;;22.67;20.30;;;17.30;99.90;;;;;;4955664;28;20046;-55
2022/09/03 03:21:04;;;;;;;28.80;23.05;;;17.30;99.90;;;;;;4954519;29;20043;-53
2022/09/03 03:23:31;;;;;;;26.60;21.90;;;17.30;99.90;;;;;;4955974;28;20039;-54
2022/09/03 03:25:58;;;;;;;25.58;23.13;;;17.30;99.90;;;;;;4955231;28;20387;-55
2022/09/03 03:28:25;;;;;;;25.98;23.33;;;17.40;99.90;;;;;;4956138;29;20094;-53
2022/09/03 03:30:52;;;;;;;24.30;21.92;;;17.50;99.90;;;;;;4955094;28;20043;-55
2022/09/03 03:33:19;;;;;;;26.13;23.58;;;17.50;99.90;;;;;;4955468;28;20134;-55
2022/09/03 03:35:47;;;;;;;24.65;21.77;;;17.50;99.90;;;;;;4954986;29;20047;-55
2022/09/03 03:38:14;;;;;;;23.95;21.48;;;17.50;99.90;;;;;;4955512;28;20090;-56
2022/09/03 03:40:41;;;;;;;24.58;22.25;;;17.50;99.90;;;;;;4954148;29;20074;-53
2022/09/03 03:43:07;;;;;;;25.25;22.75;;;17.50;99.90;;;;;;4955709;28;20049;-53
2022/09/03 03:45:34;;;;;;;25.48;22.88;;;17.50;99.90;;;;;;4955943;29;20043;-51
2022/09/03 03:48:01;;;;;;;26.52;23.77;;;17.40;99.90;;;;;;4954957;29;20430;-55
2022/09/03 03:50:28;;;;;;;24.65;21.92;;;17.40;99.90;;;;;;4955436;28;20055;-55
2022/09/03 03:52:55;;;;;;;27.70;24.65;;;17.40;99.90;;;;;;4955743;28;20043;-54
2022/09/03 03:55:21;;;;;;;27.70;24.00;;;17.40;99.90;;;;;;4954734;29;20435;-54
2022/09/03 03:57:52;;;;;;;26.35;23.77;;;17.40;99.90;;;;;;4954324;28;20039;-55
2022/09/03 04:00:19;;;;;;;25.95;23.15;;;17.40;99.90;;;;;;4953984;29;20039;-54
2022/09/03 04:02:46;;;;;;;27.25;24.73;;;17.40;99.90;;;;;;4951261;28;20106;-54
2022/09/03 04:05:13;;;;;;;28.63;25.95;;;17.40;99.90;;;;;;4953643;28;20131;-56
2022/09/03 04:07:40;;;;;;;30.30;27.30;;;17.40;99.90;;;;;;4956224;29;20039;-55
2022/09/03 04:10:06;;;;;;;32.60;29.33;;;17.50;99.90;;;;;;4958030;28;20146;-52
2022/09/03 04:12:33;;;;;;;33.03;29.92;;;17.50;99.90;;;;;;4957705;29;20043;-55
2022/09/03 04:15:00;;;;;;;33.22;29.92;;;17.50;99.90;;;;;;4957755;28;20062;-53
2022/09/03 04:17:26;;;;;;;34.55;30.77;;;17.50;99.90;;;;;;4957774;28;20043;-56
2022/09/03 04:19:53;;;;;;;34.92;31.40;;;17.50;99.90;;;;;;4957978;28;20630;-56
2022/09/03 04:22:20;;;;;;;37.22;33.35;;;17.40;99.90;;;;;;4956350;28;20042;-57
2022/09/03 04:24:47;;;;;;;38.45;34.25;;;17.50;99.90;;;;;;4956717;28;20110;-55
2022/09/03 04:27:14;;;;;;;35.28;31.88;;;17.50;99.90;;;;;;4956674;29;20059;-55
2022/09/03 04:29:40;;;;;;;35.50;31.90;;;17.50;99.90;;;;;;4956317;29;20043;-54
2022/09/03 04:34:52;;;;;;;35.67;31.98;;;17.50;99.90;;;;;;4957320;28;20501;-53
2022/09/03 04:37:19;;;;;;;36.33;32.63;;;17.40;99.90;;;;;;4957397;29;20039;-54
2022/09/03 04:39:46;;;;;;;35.78;32.30;;;17.50;99.90;;;;;;4955619;29;20462;-55
2022/09/03 04:42:13;;;;;;;38.38;34.70;;;17.50;99.90;;;;;;4957656;28;20102;-55
2022/09/03 04:44:40;;;;;;;38.55;34.67;;;17.50;99.90;;;;;;4957251;28;20046;-53
2022/09/03 04:47:06;;;;;;;36.72;33.13;;;17.40;99.90;;;;;;4957531;28;20073;-56
2022/09/03 04:49:33;;;;;;;38.05;34.17;;;17.40;99.90;;;;;;4957776;29;20059;-56
2022/09/03 04:52:00;;;;;;;40.17;35.67;;;17.30;99.90;;;;;;4955659;29;20035;-55
2022/09/03 04:54:27;;;;;;;39.60;35.63;;;17.30;99.90;;;;;;4916285;28;1202124;-55
2022/09/03 04:56:55;;;;;;;38.60;34.88;;;17.30;99.90;;;;;;4957105;29;20039;-54
2022/09/03 04:59:22;;;;;;;38.13;34.45;;;17.20;99.90;;;;;;4958280;29;20113;-56
2022/09/03 05:01:51;;;;;;;38.45;34.65;;;17.20;99.90;;;;;;4955926;28;20102;-54
2022/09/03 05:04:18;;;;;;;40.15;35.83;;;17.20;99.90;;;;;;4955201;28;20466;-55
2022/09/03 05:06:45;;;;;;;36.63;33.22;;;17.20;99.90;;;;;;4958718;28;20474;-53
2022/09/03 05:09:12;;;;;;;37.95;34.42;;;17.20;99.90;;;;;;4958095;28;20050;-55
2022/09/03 05:11:38;;;;;;;39.65;35.67;;;17.20;99.90;;;;;;4956591;28;20043;-53
2022/09/03 05:14:05;;;;;;;38.85;34.72;;;17.20;99.90;;;;;;4955880;28;20507;-56
2022/09/03 05:16:32;;;;;;;39.80;35.95;;;17.30;99.90;;;;;;4956488;28;20043;-55
2022/09/03 05:18:59;;;;;;;40.10;36.20;;;17.20;99.90;;;;;;4955450;29;20047;-55
2022/09/03 05:21:27;;;;;;;39.05;35.35;;;17.20;99.90;;;;;;4955822;29;20102;-54
2022/09/03 05:23:54;;;;;;;38.58;34.85;;;17.20;99.90;;;;;;4956070;28;20069;-55
2022/09/03 05:26:21;;;;;;;40.08;36.17;;;17.10;99.90;;;;;;4956496;29;20043;-53
2022/09/03 05:28:47;;;;;;;38.15;34.38;;;17.10;99.90;;;;;;4957040;29;20055;-55
2022/09/03 05:31:15;;;;;;;39.83;35.90;;;17.10;99.90;;;;;;4954872;28;20043;-53
2022/09/03 05:33:42;;;;;;;39.63;35.72;;;17.00;99.90;;;;;;4955664;29;20368;-55
2022/09/03 05:36:09;;;;;;;42.83;38.65;;;17.00;99.90;;;;;;4956526;28;20383;-51
2022/09/03 05:38:36;;;;;;;40.08;36.10;;;17.00;99.90;;;;;;4956828;28;20031;-55
2022/09/03 05:41:02;;;;;;;41.10;37.00;;;16.90;99.90;;;;;;4955916;28;20047;-56
2022/09/03 05:43:29;;;;;;;41.05;37.15;;;16.90;99.90;;;;;;4957812;28;20090;-55
2022/09/03 05:45:56;;;;;;;41.20;37.00;;;17.00;99.90;;;;;;4956929;28;20075;-55
2022/09/03 05:48:24;;;;;;;43.70;39.00;;;17.00;99.90;;;;;;4957527;29;20478;-53
2022/09/03 05:50:51;;;;;;;44.42;39.83;;;16.90;99.90;;;;;;4957414;29;20043;-55
2022/09/03 05:53:18;;;;;;;46.80;42.10;;;16.90;99.90;;;;;;4954700;28;20047;-55
2022/09/03 05:55:46;;;;;;;45.90;41.45;;;16.90;99.90;;;;;;4918485;29;20044;-55
2022/09/03 05:58:14;;;;;;;46.33;41.63;;;16.90;99.90;;;;;;4917074;29;20044;-56
2022/09/03 06:00:41;;;;;;;48.05;43.08;;;16.90;99.90;;;;;;4917329;29;20044;-54
2022/09/03 06:03:07;;;;;;;47.13;42.13;;;16.80;99.90;;;;;;4917760;29;20103;-55
2022/09/03 06:05:34;;;;;;;50.13;45.03;;;16.90;99.90;;;;;;4918320;29;20062;-53
2022/09/03 06:08:01;;;;;;;45.65;41.05;;;16.90;99.90;;;;;;4933478;29;20060;-54
2022/09/03 06:10:28;;;;;;;46.67;41.97;;;16.90;99.90;;;;;;4918558;29;20076;-54
2022/09/03 06:13:06;;;;;;;47.33;42.78;;;16.90;99.90;;;;;;4916501;29;20079;-54
2022/09/03 06:15:32;;;;;;;48.30;43.53;;;16.90;99.90;;;;;;4915743;29;20087;-54
2022/09/03 06:17:59;;;;;;;46.65;42.03;;;16.90;99.90;;;;;;4918657;29;20036;-55
2022/09/03 06:20:27;;;;;;;46.35;41.78;;;16.90;99.90;;;;;;4918809;29;20040;-56
2022/09/03 06:22:54;;;;;;;46.45;41.90;;;16.90;99.90;;;;;;4916001;29;20051;-53
2022/09/03 06:25:21;;;;;;;49.05;43.85;;;16.90;99.90;;;;;;4918647;29;20536;-56
2022/09/03 06:27:48;;;;;;;46.50;41.70;;;16.90;99.90;;;;;;4917092;29;20499;-52
2022/09/03 06:30:15;;;;;;;46.72;41.83;;;16.90;99.90;;;;;;4918237;29;20048;-55
2022/09/03 06:32:42;;;;;;;45.90;41.50;;;16.90;99.90;;;;;;4916053;29;20055;-56
2022/09/03 06:35:09;;;;;;;44.63;40.03;;;17.00;99.90;;;;;;4910106;29;20104;-54
2022/09/03 06:37:35;;;;;;;45.13;40.55;;;16.90;99.90;;;;;;4914461;29;20491;-56
2022/09/03 06:40:02;;;;;;;45.55;40.50;;;17.00;99.90;;;;;;4917416;29;20391;-56
2022/09/03 06:42:30;;;;;;;44.88;40.47;;;17.00;99.90;;;;;;4918429;29;20051;-54
2022/09/03 06:44:57;;;;;;;45.40;40.67;;;17.10;99.90;;;;;;4917754;29;20376;-55
2022/09/03 06:47:23;;;;;;;46.47;41.65;;;17.10;99.90;;;;;;4916367;29;20403;-54
2022/09/03 06:49:50;;;;;;;46.45;41.88;;;17.20;99.90;;;;;;4917171;29;20487;-55
2022/09/03 06:52:17;;;;;;;48.90;43.80;;;17.30;99.90;;;;;;4918037;29;20116;-55
2022/09/03 06:54:44;;;;;;;47.75;42.60;;;17.30;99.90;;;;;;4940010;29;20063;-56
2022/09/03 06:57:10;;;;;;;46.72;41.67;;;17.30;99.90;;;;;;4954032;28;20047;-55
2022/09/03 06:59:37;;;;;;;47.60;42.53;;;17.40;99.90;;;;;;4951947;28;20505;-53
2022/09/03 07:02:04;;;;;;;47.83;42.90;;;17.40;99.90;;;;;;4953330;28;20048;-55
2022/09/03 07:04:33;;;;;;;47.03;42.63;;;17.40;99.90;;;;;;4954546;29;20058;-56
2022/09/03 07:07:01;;;;;;;46.03;41.25;;;17.40;99.90;;;;;;4955030;28;20047;-54
2022/09/03 07:09:28;;;;;;;42.15;38.15;;;17.50;99.90;;;;;;4953620;29;20039;-54
2022/09/03 07:11:54;;;;;;;41.65;37.53;;;17.50;99.90;;;;;;4955970;28;20047;-56
2022/09/03 07:14:21;;;;;;;41.65;37.28;;;17.60;99.90;;;;;;4955050;28;20486;-56
2022/09/03 07:16:48;;;;;;;40.20;36.22;;;17.70;99.90;;;;;;4953160;29;20410;-56
2022/09/03 07:19:15;;;;;;;38.63;34.67;;;17.80;99.90;;;;;;4953212;28;20119;-55
2022/09/03 07:21:42;;;;;;;35.38;31.80;;;17.80;99.90;;;;;;4955252;28;20040;-54
2022/09/03 07:24:15;;;;;;;34.08;30.42;;;17.90;99.90;;;;;;4955679;28;20450;-53
2022/09/03 07:26:45;;;;;;;32.67;29.30;;;18.00;99.90;;;;;;4953808;28;20043;-54
2022/09/03 07:29:14;;;;;;;30.77;27.65;;;18.00;99.90;;;;;;4954108;29;20043;-52
2022/09/03 07:31:41;;;;;;;27.17;24.27;;;18.10;99.90;;;;;;4954675;28;20183;-55
2022/09/03 07:34:08;;;;;;;20.73;18.52;;;18.20;99.90;;;;;;4953116;28;20048;-55
2022/09/03 07:36:37;;;;;;;17.38;15.50;;;18.30;99.90;;;;;;4953690;28;20051;-55
2022/09/03 07:39:04;;;;;;;14.43;12.93;;;18.50;99.90;;;;;;4955146;28;20110;-57
2022/09/03 07:41:32;;;;;;;15.80;13.77;;;18.50;99.90;;;;;;4954101;28;20042;-56
2022/09/03 07:44:04;;;;;;;13.40;12.00;;;18.60;99.90;;;;;;4952351;29;20035;-54
2022/09/03 07:46:32;;;;;;;15.07;11.18;;;18.80;99.90;;;;;;4956114;28;20058;-55
2022/09/03 07:49:00;;;;;;;15.38;13.93;;;18.90;99.90;;;;;;4953731;28;20043;-56
2022/09/03 07:51:27;;;;;;;14.05;12.00;;;19.00;99.90;;;;;;4953656;29;20062;-53
2022/09/03 07:53:54;;;;;;;15.55;11.77;;;19.10;99.90;;;;;;4954159;29;20039;-54
2022/09/03 07:56:21;;;;;;;14.52;11.35;;;19.10;99.90;;;;;;4952624;28;20051;-53
2022/09/03 07:58:47;;;;;;;14.43;10.35;;;19.20;99.90;;;;;;4951320;29;20039;-53
2022/09/03 08:01:14;;;;;;;12.93;10.95;;;19.30;99.90;;;;;;4955207;28;20043;-55
2022/09/03 08:03:41;;;;;;;11.30;9.68;;;19.30;99.90;;;;;;4951883;28;20039;-55
2022/09/03 08:06:08;;;;;;;9.80;8.80;;;19.40;99.90;;;;;;4953202;28;20038;-55
2022/09/03 08:08:39;;;;;;;11.05;9.88;;;19.40;99.90;;;;;;4953289;28;21123;-55
2022/09/03 08:11:08;;;;;;;11.35;10.15;;;19.50;99.90;;;;;;4953544;28;20043;-54
2022/09/03 08:13:35;;;;;;;10.43;9.43;;;19.50;99.90;;;;;;4953400;28;20047;-56
2022/09/03 08:16:02;;;;;;;10.38;9.38;;;19.60;99.90;;;;;;4953975;28;20042;-57
2022/09/03 08:18:34;;;;;;;11.68;9.93;;;19.70;99.90;;;;;;4953438;28;20051;-55
2022/09/03 08:21:01;;;;;;;10.32;8.95;;;19.80;99.90;;;;;;4936025;29;20040;-56
2022/09/03 08:23:27;;;;;;;14.18;9.80;;;19.80;99.90;;;;;;4953854;28;20051;-57
2022/09/03 08:25:55;;;;;;;8.80;7.90;;;19.90;99.90;;;;;;4949476;29;20120;-54
2022/09/03 08:28:22;;;;;;;9.13;8.18;;;19.90;99.90;;;;;;4951750;28;20054;-57
2022/09/03 08:30:49;;;;;;;12.70;8.90;;;20.00;99.90;;;;;;4954181;28;20348;-54
2022/09/03 08:33:16;;;;;;;10.20;8.52;;;20.10;99.90;;;;;;4953283;29;20553;-54
2022/09/03 08:35:42;;;;;;;10.70;9.13;;;20.10;99.90;;;;;;4953164;28;20051;-54
2022/09/03 08:38:11;;;;;;;12.73;9.95;;;20.10;99.90;;;;;;4955912;28;20130;-53
2022/09/03 08:40:37;;;;;;;12.55;10.15;;;20.20;99.90;;;;;;4952707;28;20054;-52
2022/09/03 08:43:05;;;;;;;12.38;10.00;;;20.30;99.90;;;;;;4954552;28;20577;-54
2022/09/03 08:45:32;;;;;;;11.57;9.73;;;20.30;99.90;;;;;;4952622;28;20052;-53
2022/09/03 08:47:59;;;;;;;12.50;9.93;;;20.40;99.90;;;;;;4954644;28;20059;-54
2022/09/03 08:50:26;;;;;;;12.07;10.50;;;20.40;99.90;;;;;;4936570;29;20043;-56
2022/09/03 08:52:52;;;;;;;12.98;8.82;;;20.50;99.90;;;;;;4956889;28;20100;-54
2022/09/03 08:55:19;;;;;;;12.20;8.07;;;20.60;99.90;;;;;;4958389;29;20059;-57
2022/09/03 08:57:46;;;;;;;8.88;7.97;;;20.70;99.90;;;;;;4957320;29;20046;-57
2022/09/03 09:00:13;;;;;;;10.20;8.18;;;20.70;99.90;;;;;;4957043;29;20043;-54
2022/09/03 09:02:40;;;;;;;8.52;7.65;;;20.80;99.90;;;;;;4953931;28;20047;-56
2022/09/03 09:05:06;;;;;;;7.60;6.80;;;20.90;99.90;;;;;;4954684;29;20133;-57
2022/09/03 09:07:39;;;;;;;11.05;7.00;;;20.90;99.90;;;;;;4955992;29;20090;-55
2022/09/03 09:10:06;;;;;;;7.53;6.78;;;21.00;99.90;;;;;;4957806;28;20043;-54
2022/09/03 09:12:33;;;;;;;11.23;7.05;;;21.00;99.90;;;;;;4956936;28;20150;-59
2022/09/03 09:15:12;;;;;;;10.00;5.63;;;21.00;99.90;;;;;;4956610;28;20043;-55
2022/09/03 09:17:38;;;;;;;6.90;6.13;;;21.10;99.90;;;;;;4955956;28;20043;-55
2022/09/03 09:20:06;;;;;;;9.65;7.72;;;21.20;99.90;;;;;;4957015;29;20040;-55
2022/09/03 09:22:33;;;;;;;10.35;7.80;;;21.20;99.90;;;;;;4956819;28;20086;-55
2022/09/03 09:25:00;;;;;;;8.48;5.70;;;21.30;99.90;;;;;;4957030;28;20039;-56
2022/09/03 09:27:26;;;;;;;8.77;6.97;;;21.40;99.90;;;;;;4954888;28;20047;-57
2022/09/03 09:29:53;;;;;;;10.02;6.22;;;21.40;99.90;;;;;;4957876;28;20083;-55
2022/09/03 09:32:20;;;;;;;7.63;6.43;;;21.50;99.90;;;;;;4956729;28;20047;-55
2022/09/03 09:34:47;;;;;;;9.50;6.60;;;21.60;99.90;;;;;;4955289;28;20039;-56
2022/09/03 09:37:18;;;;;;;8.93;7.32;;;21.70;99.90;;;;;;4958195;28;20055;-56
2022/09/03 09:39:45;;;;;;;9.73;6.25;;;21.80;99.90;;;;;;4956180;28;20418;-57
2022/09/03 09:42:12;;;;;;;6.95;5.15;;;21.90;99.80;;;;;;4955184;28;20039;-53
2022/09/03 09:44:38;;;;;;;7.45;5.53;;;21.90;99.90;;;;;;4956594;28;20043;-55
2022/09/03 09:47:06;;;;;;;8.73;5.50;;;21.90;99.90;;;;;;4954944;29;20058;-57
2022/09/03 09:49:34;;;;;;;5.47;4.93;;;22.00;99.50;;;;;;4954513;29;20047;-57
2022/09/03 09:52:01;;;;;;;6.78;4.78;;;22.00;99.20;;;;;;4953942;28;20372;-56
2022/09/03 09:54:27;;;;;;;6.93;4.78;;;22.10;99.10;;;;;;4957013;28;20058;-55
2022/09/03 09:56:54;;;;;;;7.63;4.72;;;22.20;99.20;;;;;;4955929;29;20035;-56
2022/09/03 09:59:21;;;;;;;5.15;4.65;;;22.20;98.90;;;;;;4955203;28;20039;-55
2022/09/03 10:01:48;;;;;;;6.63;5.28;;;22.30;99.00;;;;;;4953309;28;20086;-53
2022/09/03 10:04:14;;;;;;;7.75;5.80;;;22.30;98.80;;;;;;4955831;28;20103;-54
2022/09/03 10:07:00;;;;;;;7.97;5.13;;;22.40;98.60;;;;;;4954284;28;20982;-52
2022/09/03 10:09:26;;;;;;;;;;;22.40;98.60;;;;;;4954342;28;20043;-54
2022/09/03 10:11:57;;;;;;;6.10;4.30;;;22.40;98.30;;;;;;4955746;28;20009;-52
2022/09/03 10:14:24;;;;;;;5.50;5.00;;;22.40;98.40;;;;;;4956153;28;20043;-55
2022/09/03 10:16:51;;;;;;;8.20;5.82;;;22.50;98.40;;;;;;4953558;29;20051;-52
2022/09/03 10:19:19;;;;;;;6.72;5.85;;;22.50;98.70;;;;;;4955248;28;20051;-56
2022/09/03 10:21:46;;;;;;;6.60;5.40;;;22.50;98.60;;;;;;4943988;29;20048;-55
2022/09/03 10:24:14;;;;;;;9.20;5.30;;;22.50;98.50;;;;;;4938014;29;20487;-54
2022/09/03 10:26:43;;;;;;;7.53;5.32;;;22.50;98.30;;;;;;4944699;29;20463;-54
2022/09/03 10:29:10;;;;;;;6.78;5.63;;;22.60;98.00;;;;;;4955717;28;20098;-60
2022/09/03 10:31:37;;;;;;;6.05;5.35;;;22.70;98.20;;;;;;4953771;29;20035;-56
2022/09/03 10:34:03;;;;;;;7.20;5.28;;;22.70;98.50;;;;;;4956687;28;20363;-55
2022/09/03 10:36:30;;;;;;;6.03;5.30;;;22.70;98.20;;;;;;4956824;28;20035;-58
2022/09/03 10:38:58;;;;;;;7.07;4.47;;;22.80;98.40;;;;;;4956869;28;20387;-55
2022/09/03 10:41:25;;;;;;;5.40;4.10;;;22.90;97.70;;;;;;4956062;28;20043;-57
2022/09/03 10:43:52;;;;;;;5.72;4.70;;;22.90;97.90;;;;;;4954385;28;20043;-53
2022/09/03 10:46:21;;;;;;;6.20;4.40;;;23.00;97.90;;;;;;4956007;28;20094;-54
2022/09/03 10:48:50;;;;;;;6.82;4.18;;;23.00;97.20;;;;;;4953874;29;20494;-58
2022/09/03 10:51:16;;;;;;;8.80;5.30;;;23.00;97.60;;;;;;4956772;28;20043;-55
2022/09/03 10:53:43;;;;;;;5.85;3.58;;;23.00;97.50;;;;;;4955119;28;20039;-55
2022/09/03 10:56:11;;;;;;;4.20;3.15;;;23.00;96.80;;;;;;4953851;28;20095;-57
2022/09/03 10:58:38;;;;;;;4.13;3.53;;;23.00;96.10;;;;;;4953731;28;20047;-56
2022/09/03 11:01:05;;;;;;;6.10;3.67;;;23.00;96.50;;;;;;4955090;28;20057;-56
2022/09/03 11:03:32;;;;;;;3.80;3.00;;;23.10;96.30;;;;;;4955023;29;20098;-56
2022/09/03 11:05:58;;;;;;;4.00;3.50;;;23.20;96.50;;;;;;4955352;28;20047;-57
2022/09/03 11:08:25;;;;;;;4.85;3.30;;;23.30;96.20;;;;;;4954258;28;20063;-55
2022/09/03 11:10:52;;;;;;;4.60;3.38;;;23.30;96.30;;;;;;4954893;29;20035;-55
2022/09/03 11:13:19;;;;;;;3.72;3.05;;;23.50;95.80;;;;;;4953762;29;20047;-56
2022/09/03 11:15:46;;;;;;;4.78;3.17;;;23.60;95.50;;;;;;4952705;28;20035;-56
2022/09/03 11:18:12;;;;;;;3.85;2.90;;;23.70;95.40;;;;;;4955165;29;20041;-57
2022/09/03 11:20:40;;;;;;;4.20;2.70;;;23.70;95.20;;;;;;4954636;28;20459;-55
2022/09/03 11:23:07;;;;;;;5.30;2.28;;;23.60;95.10;;;;;;4954616;29;20047;-55
2022/09/03 11:25:35;;;;;;;3.63;2.20;;;23.70;94.50;;;;;;4953850;28;20043;-58
2022/09/03 11:28:02;;;;;;;3.55;2.60;;;23.70;94.70;;;;;;4953751;29;20047;-56
2022/09/03 11:30:29;;;;;;;5.28;2.60;;;23.80;94.60;;;;;;4953563;28;20047;-58
2022/09/03 11:32:55;;;;;;;3.83;2.30;;;23.80;94.50;;;;;;4952781;29;20137;-58
2022/09/03 11:35:22;;;;;;;3.70;2.38;;;23.90;94.40;;;;;;4954641;28;20035;-55
2022/09/03 11:37:49;;;;;;;3.50;2.40;;;23.90;94.60;;;;;;4952910;29;20499;-55
2022/09/03 11:40:17;;;;;;;4.18;2.30;;;23.90;94.70;;;;;;4955907;28;20047;-56
2022/09/03 11:42:43;;;;;;;2.80;2.13;;;24.00;94.30;;;;;;4955548;28;20680;-56
2022/09/03 11:45:11;;;;;;;4.15;2.38;;;24.10;94.20;;;;;;4953516;29;20063;-56
2022/09/03 11:47:38;;;;;;;4.22;2.47;;;24.10;93.80;;;;;;4935038;29;20122;-57
2022/09/03 11:50:05;;;;;;;4.55;2.63;;;24.10;93.30;;;;;;4939418;29;20035;-57
2022/09/03 11:52:32;;;;;;;3.53;2.20;;;24.10;93.90;;;;;;4935816;29;20047;-56
2022/09/03 11:54:59;;;;;;;3.55;2.22;;;24.10;93.60;;;;;;4951191;28;20062;-57
2022/09/03 11:57:25;;;;;;;2.40;1.88;;;24.20;93.70;;;;;;4952846;29;20494;-57
2022/09/03 11:59:52;;;;;;;3.17;2.30;;;24.30;93.20;;;;;;4953651;29;20050;-55
2022/09/03 12:02:19;;;;;;;4.88;2.25;;;24.40;93.20;;;;;;4951644;29;20050;-57
2022/09/03 12:04:46;;;;;;;3.47;1.95;;;24.40;93.30;;;;;;4951926;29;20071;-56
2022/09/03 12:07:13;;;;;;;3.58;1.90;;;24.50;92.90;;;;;;4954291;29;20517;-57
2022/09/03 12:09:43;;;;;;;4.15;2.40;;;24.60;93.10;;;;;;4953223;28;20509;-58
2022/09/03 12:12:10;;;;;;;3.58;2.25;;;24.60;93.00;;;;;;4955583;29;20074;-53
2022/09/03 12:14:37;;;;;;;2.75;2.20;;;24.70;92.90;;;;;;4955286;28;20047;-52
2022/09/03 12:17:04;;;;;;;3.10;1.90;;;24.80;92.60;;;;;;4952990;29;20036;-54
2022/09/03 12:19:31;;;;;;;4.40;2.10;;;24.80;92.70;;;;;;4954802;28;20043;-56
2022/09/03 12:21:57;;;;;;;3.60;2.10;;;24.90;92.40;;;;;;4953580;28;20122;-55
2022/09/03 12:24:24;;;;;;;4.75;2.25;;;25.00;92.80;;;;;;4935770;29;20154;-56
2022/09/03 12:26:51;;;;;;;4.53;2.10;;;25.10;92.90;;;;;;4948170;28;20043;-57
2022/09/03 12:29:18;;;;;;;3.95;2.13;;;25.20;92.60;;;;;;4950452;29;20051;-56
2022/09/03 12:31:45;;;;;;;3.13;2.20;;;25.20;92.00;;;;;;4959066;29;20118;-56
2022/09/03 12:34:12;;;;;;;3.45;2.03;;;25.20;92.00;;;;;;4958665;28;20039;-56
2022/09/03 12:36:38;;;;;;;2.83;1.80;;;25.20;92.00;;;;;;4957420;29;20126;-58